Time;durP1;ratioP1;P1;durP2;ratioP2;P2;SDS_P1;SDS_P2;PMS_P1;PMS_P2;Temp;Humidity;BMP_temperature;BMP_pressure;BME280_temperature;BME280_humidity;BME280_pressure;Samples;Min_cycle;Max_cycle;Signal;HPM_P1;HPM_P2
2022/01/10 00:01:42;;;;;;;;;;;;;;;2.49;60.51;98841.81;5313771;27;34206;-86
2022/01/10 00:04:12;;;;;;;;;;;;;;;2.40;60.82;98839.19;5313881;27;34846;-86
2022/01/10 00:06:40;;;;;;;;;;;;;;;2.42;60.78;98842.63;5319919;27;33028;-85
2022/01/10 00:09:09;;;;;;;;;;;;;;;2.14;61.67;98841.59;5314222;27;34257;-86
2022/01/10 00:11:37;;;;;;;;;;;;;;;2.39;60.87;98840.03;5305879;27;34265;-86
2022/01/10 00:14:05;;;;;;;;;;;;;;;2.27;61.04;98834.84;5314434;27;34489;-85
2022/01/10 00:16:34;;;;;;;;;;;;;;;2.24;61.45;98835.69;5313851;27;33850;-86
2022/01/10 00:19:03;;;;;;;;;;;;;;;2.53;60.33;98842.69;5320545;27;34841;-86
2022/01/10 00:21:32;;;;;;;;;;;;;;;2.37;60.78;98841.75;5315014;27;34576;-86
2022/01/10 00:24:01;;;;;;;;;;;;;;;2.56;60.46;98838.44;5310664;27;34716;-86
2022/01/10 00:26:29;;;;;;;;;;;;;;;2.47;60.60;98834.97;5311845;27;33102;-86
2022/01/10 00:28:58;;;;;;;;;;;;;;;2.29;61.10;98845.94;5314935;27;33884;-86
2022/01/10 00:31:26;;;;;;;;;;;;;;;2.40;60.79;98840.91;5315713;27;34038;-86
2022/01/10 00:33:57;;;;;;;;;;;;;;;2.36;60.68;98837.47;5318952;27;33501;-86
2022/01/10 00:36:26;;;;;;;;;;;;;;;2.34;60.81;98841.72;5311965;27;32717;-85
2022/01/10 00:38:59;;;;;;;;;;;;;;;2.36;61.14;98852.81;5312075;27;34734;-86
2022/01/10 00:41:27;;;;;;;;;;;;;;;2.40;60.88;98846.88;5310424;27;33929;-86
2022/01/10 00:43:56;;;;;;;;;;;;;;;2.33;60.95;98848.53;5311405;27;34948;-86
2022/01/10 00:46:24;;;;;;;;;;;;;;;2.23;61.36;98845.91;5317925;27;33044;-86
2022/01/10 00:48:55;;;;;;;;;;;;;;;2.31;61.19;98857.06;5313011;27;33434;-86
2022/01/10 00:51:23;;;;;;;;;;;;;;;2.31;60.97;98851.94;5312359;27;35391;-86
2022/01/10 00:53:52;;;;;;;;;;;;;;;2.12;61.29;98849.25;5312841;27;34122;-85
2022/01/10 00:56:22;;;;;;;;;;;;;;;2.05;61.59;98847.47;5313000;27;34071;-86
2022/01/10 00:58:50;;;;;;;;;;;;;;;2.21;60.88;98851.03;5318808;27;34146;-85
2022/01/10 01:01:19;;;;;;;;;;;;;;;1.98;61.54;98858.53;5312121;27;33711;-85
2022/01/10 01:03:48;;;;;;;;;;;;;;;2.01;61.80;98857.72;5314996;27;34444;-86
2022/01/10 01:06:17;;;;;;;;;;;;;;;2.07;61.43;98863.72;5313021;27;31889;-87
2022/01/10 01:08:46;;;;;;;;;;;;;;;2.06;61.39;98862.00;5314628;27;34771;-86
2022/01/10 01:14:08;;;;;;;;;;;;;;;2.04;61.35;98860.28;5320635;27;34536;-85
2022/01/10 01:16:46;;;;;;;;;;;;;;;1.96;61.77;98867.03;5314700;27;33452;-85
2022/01/10 01:24:51;;;;;;;;;;;;;;;1.77;62.57;98866.03;5294464;27;34003;-86
2022/01/10 01:27:20;;;;;;;;;;;;;;;1.98;62.11;98865.34;5314957;27;33307;-85
2022/01/10 01:29:50;;;;;;;;;;;;;;;1.93;62.38;98870.41;5315855;27;33881;-86
2022/01/10 01:32:18;;;;;;;;;;;;;;;2.19;61.40;98862.09;5320980;27;33887;-86
2022/01/10 01:34:47;;;;;;;;;;;;;;;2.22;61.39;98867.22;5314781;27;34994;-85
2022/01/10 01:37:15;;;;;;;;;;;;;;;1.99;61.97;98867.06;5314678;27;34097;-86
2022/01/10 01:39:44;;;;;;;;;;;;;;;2.05;61.83;98859.41;5315055;27;34012;-86
2022/01/10 01:42:32;;;;;;;;;;;;;;;2.13;61.65;98873.16;5315171;27;33914;-86
2022/01/10 01:45:02;;;;;;;;;;;;;;;2.35;60.90;98869.88;5321552;27;34205;-85
2022/01/10 01:47:31;;;;;;;;;;;;;;;2.44;60.57;98874.22;5337541;26;32264;-85
2022/01/10 01:50:02;;;;;;;;;;;;;;;2.39;60.91;98872.44;5315591;27;34056;-86
2022/01/10 01:52:30;;;;;;;;;;;;;;;2.28;61.20;98873.25;5314511;27;34223;-86
2022/01/10 01:54:59;;;;;;;;;;;;;;;2.20;61.77;98874.91;5315060;27;34188;-86
2022/01/10 01:57:28;;;;;;;;;;;;;;;2.18;61.80;98876.59;5314862;27;32751;-86
2022/01/10 01:59:57;;;;;;;;;;;;;;;2.33;61.06;98879.25;5320858;27;34693;-86
2022/01/10 02:02:26;;;;;;;;;;;;;;;2.12;61.95;98877.38;5312525;27;33297;-85
2022/01/10 02:04:55;;;;;;;;;;;;;;;2.19;62.14;98874.88;5314799;27;33137;-86
2022/01/10 02:07:23;;;;;;;;;;;;;;;2.04;62.57;98886.72;5315242;27;33159;-85
2022/01/10 02:09:52;;;;;;;;;;;;;;;2.17;62.39;98874.00;5314596;27;34156;-86
2022/01/10 02:12:21;;;;;;;;;;;;;;;2.16;62.48;98870.59;5320863;27;34260;-86
2022/01/10 02:14:49;;;;;;;;;;;;;;;2.16;62.49;98872.31;5314635;27;33710;-85
2022/01/10 02:17:22;;;;;;;;;;;;;;;2.33;62.11;98874.13;5313860;27;33999;-86
2022/01/10 02:19:55;;;;;;;;;;;;;;;2.12;62.62;98872.28;5314699;27;34352;-85
2022/01/10 02:22:24;;;;;;;;;;;;;;;2.53;60.86;98869.12;5314593;27;34250;-85
2022/01/10 02:24:55;;;;;;;;;;;;;;;2.24;61.97;98876.62;5316489;27;35092;-85
2022/01/10 02:27:24;;;;;;;;;;;;;;;2.12;62.14;98869.72;5319182;27;33554;-86
2022/01/10 02:29:53;;;;;;;;;;;;;;;2.27;61.51;98868.09;5312767;27;34063;-86
2022/01/10 02:32:21;;;;;;;;;;;;;;;2.37;61.31;98869.03;5312682;27;34284;-86
2022/01/10 02:34:51;;;;;;;;;;;;;;;2.45;61.09;98864.81;5312233;27;34095;-86
2022/01/10 02:37:34;;;;;;;;;;;;;;;2.53;60.68;98868.28;5312318;27;33436;-86
2022/01/10 02:40:08;;;;;;;;;;;;;;;2.43;61.04;98867.38;5319091;27;34656;-86
2022/01/10 02:42:37;;;;;;;;;;;;;;;2.49;60.97;98876.78;5313017;27;34151;-86
2022/01/10 02:45:06;;;;;;;;;;;;;;;2.39;61.19;98875.88;5311269;27;32802;-86
2022/01/10 02:47:34;;;;;;;;;;;;;;;2.48;61.08;98880.19;5303852;27;33530;-86
2022/01/10 02:50:03;;;;;;;;;;;;;;;2.42;61.23;98875.91;5312917;27;34802;-86
2022/01/10 02:52:34;;;;;;;;;;;;;;;2.54;60.82;98875.13;5314321;27;33859;-85
2022/01/10 02:55:02;;;;;;;;;;;;;;;2.61;60.36;98870.88;5318934;27;33987;-85
2022/01/10 02:57:31;;;;;;;;;;;;;;;2.35;60.93;98871.59;5312538;27;32975;-85
2022/01/10 03:00:03;;;;;;;;;;;;;;;2.47;60.75;98871.66;5312985;27;33885;-86
2022/01/10 03:02:34;;;;;;;;;;;;;;;2.19;61.70;98882.56;5312844;27;34292;-86
2022/01/10 03:05:03;;;;;;;;;;;;;;;2.17;61.72;98882.53;5312999;27;33950;-86
2022/01/10 03:07:32;;;;;;;;;;;;;;;2.25;61.64;98886.03;5319159;27;33998;-85
2022/01/10 03:10:01;;;;;;;;;;;;;;;2.34;61.26;98887.78;5312626;27;34233;-86
2022/01/10 03:12:31;;;;;;;;;;;;;;;2.19;61.65;98888.53;5292992;27;33466;-86
2022/01/10 03:15:00;;;;;;;;;;;;;;;2.22;61.58;98893.66;5312520;27;34287;-86
2022/01/10 03:17:29;;;;;;;;;;;;;;;2.35;61.28;98892.06;5316002;27;33153;-85
2022/01/10 03:19:57;;;;;;;;;;;;;;;2.34;61.31;98895.47;5319297;27;34791;-85
2022/01/10 03:22:26;;;;;;;;;;;;;;;2.14;62.03;98895.31;5312923;27;34216;-86
2022/01/10 03:24:57;;;;;;;;;;;;;;;2.23;61.71;98900.50;5309166;27;84311;-85
2022/01/10 03:27:27;;;;;;;;;;;;;;;2.23;61.99;98907.34;5313914;27;32990;-86
2022/01/10 03:29:55;;;;;;;;;;;;;;;2.20;62.15;98907.28;5314155;27;34192;-86
2022/01/10 03:32:25;;;;;;;;;;;;;;;2.38;61.52;98904.88;5315586;27;34406;-85
2022/01/10 03:34:57;;;;;;;;;;;;;;;2.25;61.63;98903.09;5320718;27;33653;-86
2022/01/10 03:37:25;;;;;;;;;;;;;;;2.34;61.77;98905.69;5316870;27;33883;-85
2022/01/10 03:39:54;;;;;;;;;;;;;;;2.44;61.45;98907.50;5314595;27;34182;-85
2022/01/10 03:42:22;;;;;;;;;;;;;;;2.67;60.61;98904.22;5314310;27;34070;-85
2022/01/10 03:44:53;;;;;;;;;;;;;;;2.38;61.55;98904.03;5313828;27;34304;-86
2022/01/10 03:47:22;;;;;;;;;;;;;;;2.54;60.91;98911.81;5320656;27;34189;-86
2022/01/10 03:49:50;;;;;;;;;;;;;;;2.56;60.87;98922.94;5313922;27;34172;-86
2022/01/10 03:52:20;;;;;;;;;;;;;;;2.59;60.78;98916.97;5314041;27;35055;-86
2022/01/10 03:54:49;;;;;;;;;;;;;;;2.65;60.73;98928.94;5325983;26;33401;-87
2022/01/10 03:57:17;;;;;;;;;;;;;;;2.78;60.22;98928.19;5314656;27;33489;-86
2022/01/10 03:59:46;;;;;;;;;;;;;;;2.40;61.44;98939.03;5321487;27;33722;-86
2022/01/10 04:02:16;;;;;;;;;;;;;;;2.73;60.44;98934.97;5314763;27;34950;-86
2022/01/10 04:04:44;;;;;;;;;;;;;;;2.53;61.02;98930.56;5314760;27;34077;-86
2022/01/10 04:07:16;;;;;;;;;;;;;;;2.41;61.44;98942.44;5314965;27;33050;-86
2022/01/10 04:09:47;;;;;;;;;;;;;;;2.41;61.81;98945.84;5314958;27;33901;-86
2022/01/10 04:12:21;;;;;;;;;;;;;;;2.63;61.23;98946.00;5319694;27;34363;-87
2022/01/10 04:14:49;;;;;;;;;;;;;;;2.59;61.39;98944.28;5321420;27;34265;-87
2022/01/10 04:17:19;;;;;;;;;;;;;;;2.62;61.35;98946.88;5314852;27;33961;-86
2022/01/10 04:19:47;;;;;;;;;;;;;;;2.74;61.02;98950.34;5314878;27;34214;-86
2022/01/10 04:22:17;;;;;;;;;;;;;;;2.79;60.88;98955.50;5315238;27;34510;-86
2022/01/10 04:24:45;;;;;;;;;;;;;;;3.01;59.89;98958.19;5314384;27;34208;-86
2022/01/10 04:27:14;;;;;;;;;;;;;;;2.99;59.90;98958.19;5321578;27;33317;-86
2022/01/10 04:29:43;;;;;;;;;;;;;;;3.11;59.47;98960.81;5314802;27;34808;-87
2022/01/10 04:32:12;;;;;;;;;;;;;;;2.77;60.54;98960.62;5314798;27;34626;-86
2022/01/10 04:34:43;;;;;;;;;;;;;;;2.75;60.55;98962.34;5314511;27;34268;-86
2022/01/10 04:37:12;;;;;;;;;;;;;;;2.64;60.94;98965.66;5315264;27;33276;-86
2022/01/10 04:39:40;;;;;;;;;;;;;;;2.61;61.15;98965.63;5321446;27;34626;-86
2022/01/10 04:42:09;;;;;;;;;;;;;;;2.75;60.80;98964.00;5315118;27;34226;-87
2022/01/10 04:44:38;;;;;;;;;;;;;;;2.80;60.59;98961.47;5314899;27;34815;-86
2022/01/10 04:47:06;;;;;;;;;;;;;;;2.76;60.60;98969.16;5315065;27;33404;-86
2022/01/10 04:49:55;;;;;;;;;;;;;;;2.70;60.79;98970.81;5314807;27;34328;-85
2022/01/10 04:52:25;;;;;;;;;;;;;;;2.74;60.75;98967.44;5314879;27;33816;-86
2022/01/10 04:54:53;;;;;;;;;;;;;;;2.69;60.72;98976.78;5321244;27;35722;-87
2022/01/10 04:57:22;;;;;;;;;;;;;;;2.88;60.42;98977.78;5314686;27;33514;-86
2022/01/10 04:59:51;;;;;;;;;;;;;;;2.62;61.15;98986.13;5314702;27;34142;-86
2022/01/10 05:02:19;;;;;;;;;;;;;;;2.87;60.60;98978.59;5314533;27;34977;-86
2022/01/10 05:04:51;;;;;;;;;;;;;;;2.68;61.21;98981.06;5314545;27;33928;-86
2022/01/10 05:07:19;;;;;;;;;;;;;;;2.75;60.99;98982.81;5321365;27;33528;-86
2022/01/10 05:09:50;;;;;;;;;;;;;;;2.85;60.61;98981.19;5315115;27;34840;-86
2022/01/10 05:12:20;;;;;;;;;;;;;;;2.96;60.29;98991.47;5315108;27;33558;-86
2022/01/10 05:14:48;;;;;;;;;;;;;;;2.90;60.41;98987.19;5314411;27;33975;-86
2022/01/10 05:17:18;;;;;;;;;;;;;;;2.70;61.11;98994.72;5315859;27;33965;-85
2022/01/10 05:19:47;;;;;;;;;;;;;;;2.83;60.71;98995.69;5315187;27;34309;-87
2022/01/10 05:22:16;;;;;;;;;;;;;;;2.75;60.91;99000.75;5320846;27;34073;-86
2022/01/10 05:24:44;;;;;;;;;;;;;;;2.76;60.95;99004.16;5314791;27;34219;-87
2022/01/10 05:27:14;;;;;;;;;;;;;;;2.95;60.34;99000.88;5315397;27;33462;-87
2022/01/10 05:29:43;;;;;;;;;;;;;;;2.65;61.32;99005.78;5315337;27;35693;-87
2022/01/10 05:32:12;;;;;;;;;;;;;;;2.81;60.56;99007.63;5315483;27;34346;-86
2022/01/10 05:34:41;;;;;;;;;;;;;;;2.74;60.96;99000.72;5321318;27;34262;-86
2022/01/10 05:37:09;;;;;;;;;;;;;;;2.96;60.48;99010.25;5315266;27;33467;-86
2022/01/10 05:39:39;;;;;;;;;;;;;;;2.98;60.26;99000.88;5314578;27;34207;-86
2022/01/10 05:42:08;;;;;;;;;;;;;;;3.13;59.89;99006.94;5315853;27;34138;-86
2022/01/10 05:44:38;;;;;;;;;;;;;;;2.84;60.72;99011.91;5306277;27;33851;-86
2022/01/10 05:47:07;;;;;;;;;;;;;;;2.69;61.34;99012.66;5320813;27;32864;-86
2022/01/10 05:49:45;;;;;;;;;;;;;;;2.67;61.46;99017.75;5314967;27;34231;-86
2022/01/10 05:52:16;;;;;;;;;;;;;;;2.44;62.09;99020.13;5315820;27;35065;-87
2022/01/10 05:54:45;;;;;;;;;;;;;;;2.70;61.25;99019.47;5315085;27;33512;-86
2022/01/10 05:57:15;;;;;;;;;;;;;;;2.76;61.08;99019.53;5315392;27;33808;-86
2022/01/10 05:59:45;;;;;;;;;;;;;;;2.76;61.22;99022.09;5314789;27;34181;-86
2022/01/10 06:02:15;;;;;;;;;;;;;;;2.97;60.04;99019.69;5321043;27;34175;-86
2022/01/10 06:04:44;;;;;;;;;;;;;;;2.63;60.96;99022.81;5315004;27;34000;-85
2022/01/10 06:07:13;;;;;;;;;;;;;;;2.55;61.26;99030.44;5315154;27;33398;-87
2022/01/10 06:09:42;;;;;;;;;;;;;;;2.71;60.96;99016.94;5315109;27;34060;-86
2022/01/10 06:12:11;;;;;;;;;;;;;;;2.77;60.51;99022.09;5315243;27;33966;-86
2022/01/10 06:14:40;;;;;;;;;;;;;;;2.42;61.51;99026.09;5320925;27;33844;-85
2022/01/10 06:17:09;;;;;;;;;;;;;;;2.69;60.65;99023.75;5314406;27;34072;-89
2022/01/10 06:19:39;;;;;;;;;;;;;;;2.41;61.44;99025.22;5314970;27;34361;-88
2022/01/10 06:22:08;;;;;;;;;;;;;;;2.39;61.75;99034.56;5314387;27;34766;-88
2022/01/10 06:24:37;;;;;;;;;;;;;;;2.13;62.40;99035.19;5313993;27;34198;-88
2022/01/10 06:27:06;;;;;;;;;;;;;;;2.27;61.77;99034.47;5320437;27;33202;-88
2022/01/10 06:29:34;;;;;;;;;;;;;;;2.55;60.99;99041.53;5295204;27;33137;-88
2022/01/10 06:32:03;;;;;;;;;;;;;;;2.48;60.98;99042.34;5314936;27;34921;-88
2022/01/10 06:34:36;;;;;;;;;;;;;;;2.55;60.86;99046.66;5315009;27;34366;-88
2022/01/10 06:37:04;;;;;;;;;;;;;;;2.51;61.21;99054.31;5313868;27;33640;-88
2022/01/10 06:39:34;;;;;;;;;;;;;;;2.44;61.49;99049.97;5314410;27;33932;-88
2022/01/10 06:42:05;;;;;;;;;;;;;;;2.60;60.98;99053.53;5320050;27;34944;-88
2022/01/10 06:44:34;;;;;;;;;;;;;;;2.54;61.17;99059.47;5316487;27;33924;-88
2022/01/10 06:47:03;;;;;;;;;;;;;;;2.21;62.29;99062.56;5314174;27;33135;-88
2022/01/10 06:49:31;;;;;;;;;;;;;;;2.63;61.27;99058.69;5314575;27;35073;-88
2022/01/10 06:52:01;;;;;;;;;;;;;;;2.30;61.73;99060.94;5314787;27;33753;-87
2022/01/10 06:54:30;;;;;;;;;;;;;;;2.42;61.48;99067.91;5320750;27;34512;-87
2022/01/10 06:56:58;;;;;;;;;;;;;;;2.46;61.79;99072.19;5313156;27;33427;-87
2022/01/10 06:59:28;;;;;;;;;;;;;;;2.59;61.21;99072.31;5312771;27;33891;-87
2022/01/10 07:01:58;;;;;;;;;;;;;;;2.54;61.26;99074.84;5314236;27;34264;-87
2022/01/10 07:04:27;;;;;;;;;;;;;;;2.41;61.64;99089.19;5315278;27;33652;-87
2022/01/10 07:06:59;;;;;;;;;;;;;;;2.61;60.44;99083.41;5320679;27;33232;-87
2022/01/10 07:09:31;;;;;;;;;;;;;;;2.65;60.39;99090.28;5314099;27;33909;-87
2022/01/10 07:12:00;;;;;;;;;;;;;;;2.61;60.37;99091.09;5314212;27;34324;-87
2022/01/10 07:14:36;;;;;;;;;;;;;;;2.60;60.46;99086.81;5314044;27;34937;-87
2022/01/10 07:17:06;;;;;;;;;;;;;;;2.76;59.82;99093.81;5313724;27;32414;-87
2022/01/10 07:19:36;;;;;;;;;;;;;;;2.64;60.52;99098.81;5310722;27;34535;-87
2022/01/10 07:22:06;;;;;;;;;;;;;;;2.64;60.34;99096.25;5293924;27;33950;-87
2022/01/10 07:24:37;;;;;;;;;;;;;;;2.84;59.90;99097.28;5304243;27;34219;-86
2022/01/10 07:27:08;;;;;;;;;;;;;;;3.08;59.05;99103.47;5313941;27;33262;-87
2022/01/10 07:29:36;;;;;;;;;;;;;;;2.95;59.59;99113.59;5313761;27;34723;-87
2022/01/10 07:32:06;;;;;;;;;;;;;;;2.83;60.08;99118.63;5318338;27;34346;-87
2022/01/10 07:34:36;;;;;;;;;;;;;;;2.96;59.98;99124.72;5300038;27;34290;-87
2022/01/10 07:37:04;;;;;;;;;;;;;;;2.96;59.67;99132.41;5313382;27;32878;-87
2022/01/10 07:39:33;;;;;;;;;;;;;;;3.20;58.43;99132.59;5310321;27;34140;-87
2022/01/10 07:42:03;;;;;;;;;;;;;;;3.25;58.33;99134.34;5307441;27;34700;-88
2022/01/10 07:44:34;;;;;;;;;;;;;;;2.99;58.76;99133.25;5320686;27;33973;-86
2022/01/10 07:47:03;;;;;;;;;;;;;;;3.50;56.29;99133.63;5314074;27;34087;-87
2022/01/10 07:49:31;;;;;;;;;;;;;;;3.16;57.57;99140.25;5314665;27;33838;-87
2022/01/10 07:52:00;;;;;;;;;;;;;;;2.87;59.10;99143.41;5313768;27;35004;-87
2022/01/10 07:54:28;;;;;;;;;;;;;;;3.10;58.77;99146.19;5318015;27;35715;-87
2022/01/10 07:56:56;;;;;;;;;;;;;;;3.22;58.81;99139.44;5311750;27;32833;-87
2022/01/10 07:59:26;;;;;;;;;;;;;;;3.56;57.40;99143.09;5313376;27;34389;-87
2022/01/10 08:01:55;;;;;;;;;;;;;;;3.44;57.87;99140.44;5313660;27;34412;-87
2022/01/10 08:04:23;;;;;;;;;;;;;;;3.54;57.39;99149.91;5314183;27;34248;-87
2022/01/10 08:06:53;;;;;;;;;;;;;;;3.44;57.66;99149.00;5319953;27;32826;-88
2022/01/10 08:09:21;;;;;;;;;;;;;;;3.54;57.52;99150.75;5318554;27;34159;-87
2022/01/10 08:11:50;;;;;;;;;;;;;;;3.62;57.40;99153.38;5313305;27;32825;-87
2022/01/10 08:14:18;;;;;;;;;;;;;;;3.52;57.68;99156.75;5314455;27;34654;-86
2022/01/10 08:16:48;;;;;;;;;;;;;;;3.74;57.21;99153.44;5314685;27;33150;-87
2022/01/10 08:19:16;;;;;;;;;;;;;;;3.85;56.53;99150.94;5314579;27;34917;-85
2022/01/10 08:21:45;;;;;;;;;;;;;;;3.71;56.73;99148.31;5318877;27;34586;-86
2022/01/10 08:24:13;;;;;;;;;;;;;;;3.89;55.56;99152.69;5314398;27;33867;-85
2022/01/10 08:26:42;;;;;;;;;;;;;;;3.21;56.95;99159.06;5287277;27;33106;-86
2022/01/10 08:29:10;;;;;;;;;;;;;;;3.48;56.59;99155.87;5292224;27;34161;-86
2022/01/10 08:31:38;;;;;;;;;;;;;;;3.63;56.27;99163.66;5292373;27;34278;-85
2022/01/10 08:34:08;;;;;;;;;;;;;;;3.53;56.63;99161.88;5298253;27;33560;-85
2022/01/10 08:36:37;;;;;;;;;;;;;;;3.44;56.77;99166.94;5292209;27;33039;-85
2022/01/10 08:39:06;;;;;;;;;;;;;;;3.07;57.57;99168.34;5293225;27;34826;-86
2022/01/10 08:41:35;;;;;;;;;;;;;;;3.47;56.73;99166.09;5293757;27;35192;-85
2022/01/10 08:44:04;;;;;;;;;;;;;;;3.58;56.42;99169.63;5294891;27;34061;-86
2022/01/10 08:46:33;;;;;;;;;;;;;;;3.46;56.82;99172.94;5299516;27;33155;-85
2022/01/10 08:49:05;;;;;;;;;;;;;;;3.50;56.84;99176.38;5292956;27;33811;-85
2022/01/10 08:51:34;;;;;;;;;;;;;;;3.14;57.69;99177.81;5293538;27;33969;-85
2022/01/10 08:54:03;;;;;;;;;;;;;;;3.35;57.09;99177.13;5293414;27;34581;-86
2022/01/10 08:56:32;;;;;;;;;;;;;;;3.85;54.62;99180.03;5293940;27;33149;-86
2022/01/10 08:59:00;;;;;;;;;;;;;;;3.95;54.13;99182.66;5299387;27;33976;-85
2022/01/10 09:01:34;;;;;;;;;;;;;;;4.14;53.44;99183.59;5299095;27;33241;-85
2022/01/10 09:04:03;;;;;;;;;;;;;;;4.04;53.42;99177.56;5293966;27;34353;-86
2022/01/10 09:06:31;;;;;;;;;;;;;;;4.07;52.92;99186.13;5293097;27;33861;-85
2022/01/10 09:09:03;;;;;;;;;;;;;;;3.87;53.71;99192.00;5293586;27;34075;-84
2022/01/10 09:11:31;;;;;;;;;;;;;;;3.82;54.13;99195.41;5293559;27;34984;-86
2022/01/10 09:13:59;;;;;;;;;;;;;;;3.97;53.85;99186.94;5299156;27;34240;-85
2022/01/10 09:16:28;;;;;;;;;;;;;;;3.93;54.08;99199.75;5293492;27;33439;-86
2022/01/10 09:18:57;;;;;;;;;;;;;;;4.01;53.98;99201.50;5293637;27;34164;-85
2022/01/10 09:21:25;;;;;;;;;;;;;;;3.97;53.71;99204.06;5293776;27;35045;-86
2022/01/10 09:23:54;;;;;;;;;;;;;;;4.18;53.09;99204.16;5291759;27;34418;-86
2022/01/10 09:26:23;;;;;;;;;;;;;;;4.03;53.38;99204.06;5317241;27;32983;-85
2022/01/10 09:28:54;;;;;;;;;;;;;;;4.06;53.31;99201.53;5313305;27;33648;-86
2022/01/10 09:31:23;;;;;;;;;;;;;;;4.08;52.85;99207.50;5314208;27;33690;-86
2022/01/10 09:33:54;;;;;;;;;;;;;;;3.90;53.42;99210.00;5314237;27;34259;-85
2022/01/10 09:36:24;;;;;;;;;;;;;;;4.09;52.88;99198.13;5315052;27;33317;-85
2022/01/10 09:38:54;;;;;;;;;;;;;;;4.45;51.33;99202.56;5318906;27;34199;-86
2022/01/10 09:41:25;;;;;;;;;;;;;;;4.11;52.43;99205.00;5319859;27;34274;-86
2022/01/10 09:43:56;;;;;;;;;;;;;;;4.32;51.34;99193.94;5314850;27;33880;-85
2022/01/10 09:46:25;;;;;;;;;;;;;;;3.99;52.55;99194.66;5314421;27;33134;-85
2022/01/10 09:48:53;;;;;;;;;;;;;;;4.14;52.36;99193.87;5314778;27;34871;-85
2022/01/10 09:51:24;;;;;;;;;;;;;;;4.70;50.39;99191.50;5314403;27;34297;-85
2022/01/10 09:53:53;;;;;;;;;;;;;;;4.82;50.10;99189.81;5319697;27;34076;-85
2022/01/10 09:56:21;;;;;;;;;;;;;;;4.53;50.80;99194.88;5314247;27;34371;-85
2022/01/10 09:58:53;;;;;;;;;;;;;;;4.78;49.49;99193.22;5314550;27;34336;-85
2022/01/10 10:01:22;;;;;;;;;;;;;;;4.23;51.25;99189.62;5313416;27;32726;-86
2022/01/10 10:03:51;;;;;;;;;;;;;;;3.85;51.94;99195.44;5315295;27;34570;-85
2022/01/10 10:06:19;;;;;;;;;;;;;;;4.16;50.61;99193.03;5321282;27;33725;-85
2022/01/10 10:08:48;;;;;;;;;;;;;;;5.00;48.78;99188.97;5314585;27;34189;-85
2022/01/10 10:11:16;;;;;;;;;;;;;;;5.14;48.29;99187.28;5314863;27;34343;-85
2022/01/10 10:13:51;;;;;;;;;;;;;;;4.78;48.80;99193.22;5314717;27;34259;-85
2022/01/10 10:16:21;;;;;;;;;;;;;;;4.67;49.55;99198.34;5314238;27;33956;-85
2022/01/10 10:18:50;;;;;;;;;;;;;;;4.68;49.75;99192.34;5314610;27;34054;-86
2022/01/10 10:21:21;;;;;;;;;;;;;;;4.82;49.73;99195.81;5320255;27;34375;-85
2022/01/10 10:23:50;;;;;;;;;;;;;;;4.78;49.35;99188.09;5313990;27;34764;-85
2022/01/10 10:26:23;;;;;;;;;;;;;;;4.36;50.60;99187.97;5311889;27;34025;-85
2022/01/10 10:28:53;;;;;;;;;;;;;;;4.73;50.14;99184.66;5312775;27;33273;-86
2022/01/10 10:31:27;;;;;;;;;;;;;;;5.21;49.20;99190.72;5310669;27;34270;-86
2022/01/10 10:33:57;;;;;;;;;;;;;;;5.28;48.62;99189.84;5317294;27;34132;-86
2022/01/10 10:36:28;;;;;;;;;;;;;;;5.09;49.04;99189.84;5311919;27;33583;-85
2022/01/10 10:38:56;;;;;;;;;;;;;;;5.25;48.81;99192.44;5309816;27;33310;-85
2022/01/10 10:41:25;;;;;;;;;;;;;;;5.06;49.40;99191.56;5310333;27;33899;-85
2022/01/10 10:43:54;;;;;;;;;;;;;;;5.13;48.96;99186.41;5308075;27;35119;-85
2022/01/10 10:46:26;;;;;;;;;;;;;;;5.42;48.43;99187.28;5316061;27;33287;-86
2022/01/10 10:49:00;;;;;;;;;;;;;;;5.35;48.65;99181.28;5317071;27;34885;-85
2022/01/10 10:51:29;;;;;;;;;;;;;;;5.59;47.63;99198.41;5310952;27;33535;-85
2022/01/10 10:53:58;;;;;;;;;;;;;;;5.30;48.66;99194.16;5311078;27;33966;-86
2022/01/10 10:56:26;;;;;;;;;;;;;;;5.07;49.44;99188.13;5311465;27;33269;-85
2022/01/10 10:58:55;;;;;;;;;;;;;;;4.79;50.38;99197.53;5312347;27;33576;-87
2022/01/10 11:01:24;;;;;;;;;;;;;;;4.63;50.47;99197.47;5316852;27;34755;-86
2022/01/10 11:03:52;;;;;;;;;;;;;;;4.30;51.57;99190.53;5313956;27;34337;-85
2022/01/10 11:06:22;;;;;;;;;;;;;;;5.32;48.99;99192.44;5314823;27;33016;-85
2022/01/10 11:08:51;;;;;;;;;;;;;;;5.68;47.51;99187.28;5311168;27;33406;-86
2022/01/10 11:11:21;;;;;;;;;;;;;;;5.77;47.70;99200.97;5312223;27;33869;-85
2022/01/10 11:13:50;;;;;;;;;;;;;;;5.70;47.49;99201.84;5316841;27;33579;-85
2022/01/10 11:16:18;;;;;;;;;;;;;;;5.56;47.34;99208.72;5311277;27;33192;-85
2022/01/10 11:18:47;;;;;;;;;;;;;;;5.80;46.77;99209.53;5310949;27;34613;-85
2022/01/10 11:21:16;;;;;;;;;;;;;;;5.36;47.99;99213.84;5312674;27;33914;-85
2022/01/10 11:23:48;;;;;;;;;;;;;;;5.34;47.56;99208.72;5313791;27;33423;-85
2022/01/10 11:26:17;;;;;;;;;;;;;;;6.03;45.29;99212.09;5326729;26;31845;-85
2022/01/10 11:28:47;;;;;;;;;;;;;;;6.35;44.35;99215.41;5318091;27;34454;-85
2022/01/10 11:31:19;;;;;;;;;;;;;;;6.21;45.09;99212.06;5312960;27;34302;-85
2022/01/10 11:33:48;;;;;;;;;;;;;;;5.47;46.43;99219.88;5313050;27;34968;-86
2022/01/10 11:36:18;;;;;;;;;;;;;;;6.00;45.86;99212.12;5315028;27;33768;-85
2022/01/10 11:38:49;;;;;;;;;;;;;;;6.14;45.23;99211.22;5313488;27;36426;-85
2022/01/10 11:41:19;;;;;;;;;;;;;;;5.64;43.84;99219.00;5319530;27;34304;-85
2022/01/10 11:43:50;;;;;;;;;;;;;;;5.98;42.69;99210.38;5310208;27;34206;-85
2022/01/10 11:46:24;;;;;;;;;;;;;;;5.59;42.74;99218.16;5313327;27;32417;-86
2022/01/10 11:48:55;;;;;;;;;;;;;;;6.35;41.18;99219.72;5313294;27;34261;-85
2022/01/10 11:51:24;;;;;;;;;;;;;;;6.13;41.60;99218.94;5294669;27;33968;-85
2022/01/10 11:54:00;;;;;;;;;;;;;;;5.87;42.66;99221.53;5316102;27;34165;-86
2022/01/10 11:56:30;;;;;;;;;;;;;;;5.80;43.14;99231.00;5317242;27;34235;-85
2022/01/10 11:59:11;;;;;;;;;;;;;;;5.80;42.63;99222.41;5311048;27;34192;-85
2022/01/10 12:01:40;;;;;;;;;;;;;;;6.18;40.78;99224.94;5311796;27;34726;-86
2022/01/10 12:04:09;;;;;;;;;;;;;;;6.38;41.17;99219.72;5312956;27;34858;-85
2022/01/10 12:06:37;;;;;;;;;;;;;;;6.13;41.04;99232.66;5291211;27;31723;-85
2022/01/10 12:09:07;;;;;;;;;;;;;;;6.16;40.59;99224.06;5316978;27;34224;-85
2022/01/10 12:11:39;;;;;;;;;;;;;;;5.87;40.04;99231.84;5314325;27;34413;-85
2022/01/10 12:14:08;;;;;;;;;;;;;;;6.28;37.91;99234.38;5311637;27;34233;-86
2022/01/10 12:16:37;;;;;;;;;;;;;;;5.85;38.20;99231.00;5312542;27;34074;-86
2022/01/10 12:19:06;;;;;;;;;;;;;;;6.08;38.39;99243.84;5312568;27;34563;-85
2022/01/10 12:21:35;;;;;;;;;;;;;;;5.77;39.50;99241.28;5313970;27;33616;-86
2022/01/10 12:24:04;;;;;;;;;;;;;;;6.00;38.59;99240.44;5318927;27;34086;-86
2022/01/10 12:26:34;;;;;;;;;;;;;;;4.67;40.95;99245.44;5313123;27;34155;-85
2022/01/10 12:29:03;;;;;;;;;;;;;;;5.02;40.30;99244.66;5313746;27;34200;-85
2022/01/10 12:31:32;;;;;;;;;;;;;;;5.72;38.79;99241.28;5314180;27;33897;-85
2022/01/10 12:34:01;;;;;;;;;;;;;;;4.98;40.64;99245.53;5313025;27;34460;-86
2022/01/10 12:36:31;;;;;;;;;;;;;;;4.87;40.25;99249.78;5318658;27;32972;-86
2022/01/10 12:39:00;;;;;;;;;;;;;;;5.10;39.78;99253.28;5312650;27;35506;-86
2022/01/10 12:41:30;;;;;;;;;;;;;;;4.77;40.76;99253.19;5312001;27;34557;-85
2022/01/10 12:44:00;;;;;;;;;;;;;;;5.32;40.05;99254.16;5313599;27;35128;-85
2022/01/10 12:46:32;;;;;;;;;;;;;;;4.92;40.77;99260.94;5313700;27;33061;-85
2022/01/10 12:49:02;;;;;;;;;;;;;;;5.30;40.01;99260.16;5319103;27;33903;-85
2022/01/10 12:51:33;;;;;;;;;;;;;;;5.03;39.93;99266.97;5319746;27;35680;-86
2022/01/10 12:54:04;;;;;;;;;;;;;;;5.96;38.30;99273.91;5315095;27;34058;-86
2022/01/10 12:56:33;;;;;;;;;;;;;;;5.42;38.47;99273.03;5313515;27;32676;-86
2022/01/10 12:59:03;;;;;;;;;;;;;;;5.95;37.92;99281.66;5313969;27;34041;-86
2022/01/10 13:01:32;;;;;;;;;;;;;;;5.13;38.76;99281.56;5313448;27;33149;-85
2022/01/10 13:04:02;;;;;;;;;;;;;;;4.72;40.10;99281.44;5318305;27;33988;-86
2022/01/10 13:06:32;;;;;;;;;;;;;;;5.08;39.45;99295.28;5306647;27;33628;-86
2022/01/10 13:09:00;;;;;;;;;;;;;;;5.27;39.36;99299.59;5311040;27;35241;-86
2022/01/10 13:11:33;;;;;;;;;;;;;;;5.83;38.62;99304.78;5311312;27;34039;-86
2022/01/10 13:14:10;;;;;;;;;;;;;;;5.67;38.34;99311.62;5312042;27;36997;-86
2022/01/10 13:16:43;;;;;;;;;;;;;;;4.99;40.12;99314.09;5318733;27;34298;-86
2022/01/10 13:19:12;;;;;;;;;;;;;;;4.66;40.88;99318.25;5319438;27;34151;-86